LGKO/KGS METAR and TAF weather

Enter ICAO airport designator
Station Type Date Time Source
LGKO METAR 2020/12/06 00:50 UTC NOAA

LGKO 060050Z VRB03KT 9999 FEW020 16/13 Q1017


Station Type Date Time Source
LGKO Decoded METAR 2020/12/06 00:50 UTC NOAA

Kos Airport , Greece (LGKO) 36-47N 027-04E
Dec 05, 2020 - 07:50 PM EST / 2020.12.06 0050 UTC
Wind: Variable at 3 MPH (3 KT):0
Visibility: greater than 7 mile(s):0
Sky conditions: mostly clear
Temperature: 60 F (16 C)
Dew Point: 55 F (13 C)
Relative Humidity: 82%
Pressure (altimeter): 30.03 in. Hg (1017 hPa)
ob: LGKO 060050Z VRB03KT 9999 FEW020 16/13 Q1017
cycle: 1

Station Type Date Time Source
LGKO TAF 2020/12/05 18:16 UTC NOAA

TAF LGKO 051700Z 0518/0618 15010KT 9999 FEW020 SCT025

Example: see airport list